Time;durP1;ratioP1;P1;durP2;ratioP2;P2;SDS_P1;SDS_P2;PMS_P1;PMS_P2;Temp;Humidity;BMP_temperature;BMP_pressure;BME280_temperature;BME280_humidity;BME280_pressure;Samples;Min_cycle;Max_cycle;Signal;HPM_P1;HPM_P2
2023/05/14 00:01:56;;;;;;;16.45;7.35;;;11.60;99.90;;;;;;5053774;28;20059;-63
2023/05/14 00:04:23;;;;;;;11.02;6.82;;;12.00;99.90;;;;;;5053858;28;20049;-63
2023/05/14 00:06:50;;;;;;;9.98;6.10;;;11.40;99.90;;;;;;5053102;28;20064;-63
2023/05/14 00:09:17;;;;;;;12.00;6.68;;;11.50;99.90;;;;;;5053700;28;20098;-64
2023/05/14 00:11:44;;;;;;;11.55;6.38;;;11.40;99.90;;;;;;5054060;28;20052;-64
2023/05/14 00:14:11;;;;;;;12.60;6.72;;;11.40;99.90;;;;;;5071335;28;20059;-64
2023/05/14 00:16:38;;;;;;;10.15;7.00;;;11.40;99.90;;;;;;5072065;28;20055;-63
2023/05/14 00:19:07;;;;;;;12.70;6.65;;;11.40;99.90;;;;;;5053784;28;20093;-63
2023/05/14 00:21:34;;;;;;;11.52;6.63;;;11.30;99.90;;;;;;5071275;28;20102;-63
2023/05/14 00:24:01;;;;;;;11.05;6.80;;;11.30;99.90;;;;;;5051800;28;20455;-64
2023/05/14 00:26:27;;;;;;;12.93;6.95;;;11.20;99.90;;;;;;5053199;28;20056;-64
2023/05/14 00:28:54;;;;;;;10.05;7.30;;;11.20;99.90;;;;;;5051541;28;20071;-63
2023/05/14 00:31:21;;;;;;;14.27;7.18;;;11.90;99.90;;;;;;5053987;28;20059;-64
2023/05/14 00:33:48;;;;;;;14.48;7.30;;;11.10;99.90;;;;;;5069219;28;20447;-63
2023/05/14 00:36:16;;;;;;;8.73;7.03;;;11.00;99.90;;;;;;5053787;28;20500;-64
2023/05/14 00:38:43;;;;;;;9.43;6.65;;;11.00;99.90;;;;;;5053668;28;20049;-63
2023/05/14 00:41:11;;;;;;;13.77;7.10;;;11.00;99.90;;;;;;5070970;28;20083;-63
2023/05/14 00:43:37;;;;;;;18.58;7.25;;;11.00;99.90;;;;;;5071609;28;20059;-63
2023/05/14 00:46:05;;;;;;;12.75;7.53;;;10.90;99.90;;;;;;5071524;28;20075;-63
2023/05/14 00:48:32;;;;;;;10.52;6.03;;;10.90;99.90;;;;;;5053099;28;20114;-63
2023/05/14 00:50:59;;;;;;;9.35;6.45;;;10.90;99.90;;;;;;5056168;28;20454;-64
2023/05/14 00:53:27;;;;;;;13.23;7.53;;;11.20;99.90;;;;;;5057483;28;20075;-64
2023/05/14 00:55:54;;;;;;;13.60;7.07;;;10.80;99.90;;;;;;5056571;28;20044;-63
2023/05/14 00:58:22;;;;;;;12.60;6.72;;;10.80;99.90;;;;;;5057137;28;20079;-63
2023/05/14 01:00:49;;;;;;;11.38;6.38;;;11.50;99.90;;;;;;5054979;28;20055;-63
2023/05/14 01:03:16;;;;;;;9.77;6.05;;;10.80;99.90;;;;;;5074125;28;20059;-63
2023/05/14 01:05:50;;;;;;;12.77;6.80;;;10.70;99.90;;;;;;5053652;28;20057;-64
2023/05/14 01:08:25;;;;;;;13.18;6.90;;;10.80;99.90;;;;;;5054048;28;20064;-64
2023/05/14 01:11:03;;;;;;;11.02;6.47;;;10.70;99.90;;;;;;5053105;28;20106;-63
2023/05/14 01:13:37;;;;;;;8.93;6.43;;;11.40;99.90;;;;;;5054903;28;20041;-64
2023/05/14 01:16:05;;;;;;;9.70;6.88;;;10.70;99.90;;;;;;5053028;28;20056;-64
2023/05/14 01:18:33;;;;;;;11.27;7.03;;;10.70;99.90;;;;;;5053258;28;20106;-63
2023/05/14 01:21:00;;;;;;;15.45;7.28;;;10.80;99.90;;;;;;5053666;28;20052;-63
2023/05/14 01:23:28;;;;;;;10.25;6.53;;;10.80;99.90;;;;;;5052912;28;20447;-63
2023/05/14 01:25:55;;;;;;;13.95;7.05;;;10.80;99.90;;;;;;5053504;28;20078;-63
2023/05/14 01:28:28;;;;;;;12.82;6.57;;;10.80;99.90;;;;;;5053480;28;20075;-63
2023/05/14 01:31:01;;;;;;;12.32;6.82;;;10.80;99.90;;;;;;5053963;28;20047;-64
2023/05/14 01:33:31;;;;;;;12.30;6.40;;;10.80;99.90;;;;;;5054507;28;20409;-63
2023/05/14 01:35:58;;;;;;;14.05;6.55;;;10.80;99.90;;;;;;5054345;28;20052;-63
2023/05/14 01:38:26;;;;;;;10.35;6.13;;;10.80;99.90;;;;;;5052734;28;20052;-63
2023/05/14 01:40:55;;;;;;;15.73;6.97;;;10.90;99.90;;;;;;5054362;28;20052;-63
2023/05/14 01:43:23;;;;;;;9.55;6.07;;;10.80;99.90;;;;;;5054445;28;20099;-63
2023/05/14 01:45:50;;;;;;;11.80;6.78;;;10.80;99.90;;;;;;5052638;28;20079;-63
2023/05/14 01:48:17;;;;;;;22.40;7.22;;;10.80;99.90;;;;;;5054326;28;20049;-64
2023/05/14 01:50:44;;;;;;;9.60;6.57;;;10.80;99.90;;;;;;5053777;28;20447;-64
2023/05/14 01:53:11;;;;;;;9.90;6.82;;;10.80;99.90;;;;;;5052934;28;20057;-63
2023/05/14 01:55:38;;;;;;;12.82;6.78;;;10.70;99.90;;;;;;5051819;28;20489;-63
2023/05/14 01:58:06;;;;;;;13.15;6.30;;;10.70;99.90;;;;;;5053537;28;20049;-64
2023/05/14 02:00:33;;;;;;;12.93;6.85;;;10.60;99.90;;;;;;5052425;28;20052;-63
2023/05/14 02:03:00;;;;;;;11.68;6.35;;;10.70;99.90;;;;;;5051635;28;20056;-64
2023/05/14 02:05:27;;;;;;;14.48;7.40;;;10.60;99.90;;;;;;5055077;28;20056;-64
2023/05/14 02:07:54;;;;;;;16.25;8.13;;;11.30;99.90;;;;;;5054966;28;20053;-64
2023/05/14 02:10:21;;;;;;;17.23;8.30;;;11.30;99.90;;;;;;5055320;28;20074;-64
2023/05/14 02:12:48;;;;;;;13.70;8.85;;;11.40;99.90;;;;;;5072533;28;20048;-65
2023/05/14 02:15:16;;;;;;;14.95;9.30;;;10.60;99.90;;;;;;5055401;28;20121;-64
2023/05/14 02:17:43;;;;;;;16.98;10.20;;;10.60;99.90;;;;;;5072916;28;20044;-63
2023/05/14 02:20:11;;;;;;;19.70;10.10;;;10.50;99.90;;;;;;5054129;28;20040;-64
2023/05/14 02:22:41;;;;;;;20.20;10.45;;;10.50;99.90;;;;;;5055146;28;20799;-63
2023/05/14 02:25:09;;;;;;;16.40;9.95;;;10.50;99.90;;;;;;5054825;28;20510;-64
2023/05/14 02:27:36;;;;;;;16.25;9.50;;;10.40;99.90;;;;;;5072197;28;20496;-63
2023/05/14 02:30:03;;;;;;;19.50;9.93;;;10.50;99.90;;;;;;5072705;28;20040;-64
2023/05/14 02:32:31;;;;;;;17.77;9.07;;;10.40;99.90;;;;;;5054916;28;20071;-64
2023/05/14 02:34:58;;;;;;;16.45;8.73;;;10.40;99.90;;;;;;5054290;28;20051;-63
2023/05/14 02:37:25;;;;;;;16.15;9.15;;;10.40;99.90;;;;;;5072997;28;20090;-63
2023/05/14 02:39:52;;;;;;;16.20;9.10;;;10.40;99.90;;;;;;5051505;28;20041;-63
2023/05/14 02:42:19;;;;;;;16.75;9.00;;;10.40;99.90;;;;;;5053260;28;20094;-64
2023/05/14 02:44:46;;;;;;;14.52;9.07;;;10.40;99.90;;;;;;5053841;28;20102;-64
2023/05/14 02:47:13;;;;;;;18.20;9.93;;;10.40;99.90;;;;;;5053136;28;20055;-64
2023/05/14 02:49:41;;;;;;;16.80;8.38;;;11.00;99.90;;;;;;5035820;28;20451;-64
2023/05/14 02:52:08;;;;;;;14.15;8.43;;;11.00;99.90;;;;;;5053606;28;20452;-64
2023/05/14 02:54:35;;;;;;;18.83;8.75;;;10.40;99.90;;;;;;5035081;28;20053;-63
2023/05/14 02:57:02;;;;;;;18.50;9.18;;;10.30;99.90;;;;;;5035643;28;20049;-63
2023/05/14 02:59:30;;;;;;;23.55;9.35;;;10.30;99.90;;;;;;5035403;28;20075;-64
2023/05/14 03:01:57;;;;;;;18.55;9.95;;;10.40;99.90;;;;;;5052688;28;20049;-64
2023/05/14 03:04:24;;;;;;;22.05;11.40;;;10.40;99.90;;;;;;5034534;28;20140;-63
2023/05/14 03:06:52;;;;;;;17.90;10.35;;;10.40;99.90;;;;;;5071049;28;20056;-63
2023/05/14 03:09:19;;;;;;;17.15;10.07;;;10.30;99.90;;;;;;5072200;28;20090;-63
2023/05/14 03:11:46;;;;;;;17.73;10.85;;;10.30;99.90;;;;;;5054445;28;20094;-63
2023/05/14 03:14:13;;;;;;;21.73;11.88;;;10.30;99.90;;;;;;5054375;28;20106;-64
2023/05/14 03:16:41;;;;;;;30.27;12.50;;;10.30;99.90;;;;;;5053835;28;20068;-63
2023/05/14 03:19:08;;;;;;;25.13;12.27;;;10.30;99.90;;;;;;5070133;28;20052;-63
2023/05/14 03:21:35;;;;;;;22.17;12.23;;;10.30;99.90;;;;;;5054272;28;20050;-64
2023/05/14 03:24:04;;;;;;;20.58;12.05;;;10.30;99.90;;;;;;5071826;28;20102;-64
2023/05/14 03:26:31;;;;;;;21.17;10.77;;;10.30;99.90;;;;;;5054376;28;20061;-65
2023/05/14 03:28:57;;;;;;;25.63;12.98;;;10.40;99.90;;;;;;5054426;28;20121;-63
2023/05/14 03:31:25;;;;;;;21.73;11.45;;;10.40;99.90;;;;;;5071599;28;20135;-63
2023/05/14 03:33:52;;;;;;;25.30;12.38;;;10.40;99.90;;;;;;5054104;28;20127;-63
2023/05/14 03:36:19;;;;;;;20.50;12.35;;;10.40;99.90;;;;;;5053494;28;20052;-64
2023/05/14 03:38:46;;;;;;;31.90;12.38;;;10.40;99.90;;;;;;5072279;28;20048;-64
2023/05/14 03:41:14;;;;;;;26.25;11.70;;;10.40;99.90;;;;;;5053851;28;20052;-63
2023/05/14 03:43:41;;;;;;;22.48;12.52;;;10.40;99.90;;;;;;5053677;28;20048;-64
2023/05/14 03:46:08;;;;;;;17.42;11.88;;;10.40;99.90;;;;;;5072088;28;20044;-64
2023/05/14 03:48:34;;;;;;;18.85;11.23;;;10.40;99.90;;;;;;5072178;28;20052;-64
2023/05/14 03:51:01;;;;;;;25.90;12.18;;;10.40;99.90;;;;;;5053658;28;20040;-63
2023/05/14 03:53:28;;;;;;;26.27;11.88;;;10.40;99.90;;;;;;5054215;28;20048;-63
2023/05/14 03:55:55;;;;;;;24.60;11.48;;;10.40;99.90;;;;;;5054214;28;20380;-64
2023/05/14 03:58:23;;;;;;;27.48;11.60;;;10.40;99.90;;;;;;5053544;28;20102;-64
2023/05/14 04:00:50;;;;;;;20.20;10.30;;;10.40;99.90;;;;;;5071979;28;20041;-64
2023/05/14 04:03:17;;;;;;;23.00;10.60;;;10.40;99.90;;;;;;5051876;28;20052;-64
2023/05/14 04:05:45;;;;;;;20.83;11.27;;;10.40;99.90;;;;;;5071105;28;20098;-64
2023/05/14 04:08:11;;;;;;;18.38;9.70;;;11.00;99.90;;;;;;5054000;28;20050;-63
2023/05/14 04:10:38;;;;;;;18.85;10.20;;;10.50;99.90;;;;;;5053635;28;20045;-63
2023/05/14 04:13:05;;;;;;;18.90;10.88;;;10.50;99.90;;;;;;5053349;28;20055;-63
2023/05/14 04:15:34;;;;;;;19.15;10.65;;;10.50;99.90;;;;;;5053786;28;20064;-65
2023/05/14 04:18:01;;;;;;;16.25;9.25;;;10.50;99.90;;;;;;5053932;28;20052;-64
2023/05/14 04:20:28;;;;;;;17.85;9.13;;;10.70;99.90;;;;;;5053146;28;20140;-64
2023/05/14 04:22:55;;;;;;;19.73;8.70;;;10.60;99.90;;;;;;5053747;28;20531;-65
2023/05/14 04:25:22;;;;;;;17.20;8.43;;;10.60;99.90;;;;;;5073413;28;20060;-65
2023/05/14 04:27:50;;;;;;;15.30;8.45;;;10.70;99.90;;;;;;5075236;28;20496;-65
2023/05/14 04:30:17;;;;;;;16.98;8.88;;;10.70;99.90;;;;;;5075701;28;20053;-65
2023/05/14 04:32:45;;;;;;;21.30;9.07;;;10.70;99.90;;;;;;5056910;28;20098;-63
2023/05/14 04:35:12;;;;;;;17.27;7.95;;;10.70;99.90;;;;;;5075595;28;20052;-64
2023/05/14 04:37:39;;;;;;;16.02;8.68;;;10.80;99.90;;;;;;5057635;28;20493;-63
2023/05/14 04:40:09;;;;;;;17.70;8.10;;;10.80;99.90;;;;;;5057093;28;20045;-64
2023/05/14 04:42:35;;;;;;;14.30;7.28;;;10.90;99.90;;;;;;5073668;28;20040;-63
2023/05/14 04:45:04;;;;;;;23.90;8.77;;;10.90;99.90;;;;;;5075355;28;20060;-63
2023/05/14 04:47:30;;;;;;;19.83;7.95;;;11.00;99.90;;;;;;5056756;28;20133;-63
2023/05/14 04:49:59;;;;;;;22.85;8.20;;;11.00;99.90;;;;;;5075299;28;20057;-63
2023/05/14 04:52:26;;;;;;;17.30;7.32;;;11.10;99.90;;;;;;5075117;28;20059;-64
2023/05/14 04:54:53;;;;;;;17.65;7.22;;;11.20;99.90;;;;;;5072490;28;20045;-64
2023/05/14 04:57:20;;;;;;;15.40;8.13;;;11.30;99.90;;;;;;5057242;28;20052;-63
2023/05/14 04:59:47;;;;;;;23.52;8.15;;;11.30;99.90;;;;;;5055340;28;20091;-64
2023/05/14 05:02:14;;;;;;;16.23;7.88;;;11.40;99.90;;;;;;5056542;28;20450;-63
2023/05/14 05:04:41;;;;;;;19.20;8.18;;;11.40;99.90;;;;;;5056969;28;20061;-63
2023/05/14 05:07:09;;;;;;;17.15;7.95;;;11.50;99.90;;;;;;5057059;28;20049;-64
2023/05/14 05:09:36;;;;;;;17.05;7.15;;;11.60;99.90;;;;;;5054674;28;20056;-63
2023/05/14 05:12:03;;;;;;;16.20;8.48;;;11.80;99.90;;;;;;5056963;28;20052;-63
2023/05/14 05:14:30;;;;;;;16.85;8.77;;;11.70;99.90;;;;;;5074935;28;20052;-63
2023/05/14 05:16:57;;;;;;;19.15;8.10;;;11.80;99.90;;;;;;5074060;28;20056;-64
2023/05/14 05:19:24;;;;;;;19.23;8.65;;;11.90;99.90;;;;;;5056859;28;20056;-63
2023/05/14 05:21:51;;;;;;;25.23;9.48;;;12.00;99.90;;;;;;5073876;28;20578;-63
2023/05/14 05:24:19;;;;;;;18.35;8.23;;;12.10;99.90;;;;;;5056802;28;20098;-64
2023/05/14 05:26:46;;;;;;;14.98;7.68;;;12.20;99.90;;;;;;5074548;28;20048;-63
2023/05/14 05:29:13;;;;;;;28.55;10.15;;;12.30;99.90;;;;;;5074047;28;20059;-65
2023/05/14 05:31:40;;;;;;;23.65;9.18;;;12.50;99.90;;;;;;5054409;28;20506;-63
2023/05/14 05:34:07;;;;;;;14.35;9.32;;;12.60;99.90;;;;;;5056601;28;20052;-64
2023/05/14 05:36:34;;;;;;;22.48;9.18;;;13.00;99.90;;;;;;5073595;28;20119;-64
2023/05/14 05:39:01;;;;;;;19.60;8.77;;;12.90;99.90;;;;;;5074616;28;20050;-64
2023/05/14 05:41:29;;;;;;;18.38;8.25;;;13.10;99.90;;;;;;5054045;28;20455;-63
2023/05/14 05:43:56;;;;;;;15.23;7.50;;;13.10;99.90;;;;;;5055669;28;20082;-63
2023/05/14 05:46:23;;;;;;;22.75;8.43;;;13.20;99.90;;;;;;5052430;28;20067;-65
2023/05/14 05:48:52;;;;;;;15.45;7.35;;;14.00;99.90;;;;;;5065798;28;20082;-65
2023/05/14 05:51:19;;;;;;;12.27;6.85;;;13.40;99.90;;;;;;5071623;28;20051;-64
2023/05/14 05:53:46;;;;;;;12.55;7.00;;;13.50;99.90;;;;;;5055279;28;20503;-64
2023/05/14 05:56:13;;;;;;;13.18;6.78;;;13.80;99.90;;;;;;5071266;28;20048;-64
2023/05/14 05:58:41;;;;;;;13.85;6.35;;;14.00;99.90;;;;;;5054757;28;20126;-64
2023/05/14 06:01:08;;;;;;;17.77;7.25;;;14.20;99.90;;;;;;5054220;28;20044;-63
2023/05/14 06:03:35;;;;;;;11.75;5.95;;;14.40;99.90;;;;;;5072957;28;20048;-64
2023/05/14 06:06:02;;;;;;;16.63;5.88;;;14.60;99.90;;;;;;5049062;28;20137;-64
2023/05/14 06:08:29;;;;;;;14.77;7.20;;;14.80;99.90;;;;;;5051433;28;20515;-64
2023/05/14 06:10:56;;;;;;;14.85;5.90;;;15.10;99.90;;;;;;5047114;28;20048;-64
2023/05/14 06:13:22;;;;;;;12.80;5.85;;;15.40;99.90;;;;;;5051403;28;20110;-64
2023/05/14 06:15:51;;;;;;;11.43;5.10;;;15.70;99.90;;;;;;5049751;28;20106;-64
2023/05/14 06:18:18;;;;;;;9.55;5.07;;;15.90;99.90;;;;;;5052138;28;20053;-65
2023/05/14 06:20:45;;;;;;;17.23;5.90;;;16.10;99.90;;;;;;5049203;28;20447;-64
2023/05/14 06:23:12;;;;;;;14.13;5.68;;;16.30;99.90;;;;;;5048921;28;20060;-64
2023/05/14 06:25:39;;;;;;;12.35;6.47;;;16.40;99.90;;;;;;5049245;28;20056;-65
2023/05/14 06:28:06;;;;;;;8.93;4.97;;;16.50;99.90;;;;;;5047908;28;20052;-64
2023/05/14 06:30:32;;;;;;;13.27;5.38;;;16.70;99.90;;;;;;5048087;28;20055;-64
2023/05/14 06:33:01;;;;;;;13.10;5.63;;;16.80;99.90;;;;;;5049022;28;20456;-64
2023/05/14 06:35:28;;;;;;;15.95;4.78;;;17.00;99.90;;;;;;5050605;28;20049;-64
2023/05/14 06:37:55;;;;;;;14.48;5.13;;;17.10;99.90;;;;;;5050782;28;20052;-64
2023/05/14 06:40:22;;;;;;;11.73;4.78;;;17.20;99.90;;;;;;5048861;28;20527;-64
2023/05/14 06:42:48;;;;;;;12.18;4.95;;;17.20;99.90;;;;;;5050011;28;20053;-65
2023/05/14 06:45:15;;;;;;;13.10;5.32;;;17.30;99.90;;;;;;5052670;28;20452;-64
2023/05/14 06:47:42;;;;;;;16.75;5.18;;;17.30;99.90;;;;;;5049438;28;20045;-64
2023/05/14 06:50:11;;;;;;;13.05;4.80;;;17.30;99.90;;;;;;5052700;28;20060;-63
2023/05/14 06:52:38;;;;;;;14.77;5.30;;;17.20;99.90;;;;;;5049827;28;20069;-64
2023/05/14 06:55:06;;;;;;;10.95;5.40;;;17.60;99.90;;;;;;5050554;28;20041;-64
2023/05/14 06:57:33;;;;;;;14.05;5.25;;;17.20;99.90;;;;;;5050402;28;20087;-64
2023/05/14 07:00:00;;;;;;;10.70;5.13;;;17.20;99.90;;;;;;5052586;28;20053;-64
2023/05/14 07:02:27;;;;;;;13.82;5.97;;;17.20;99.90;;;;;;5049719;28;20049;-65
2023/05/14 07:04:54;;;;;;;12.48;5.93;;;17.20;99.90;;;;;;5055722;28;20106;-65
2023/05/14 07:07:23;;;;;;;13.52;5.53;;;17.20;99.90;;;;;;5067241;28;20122;-64
2023/05/14 07:09:50;;;;;;;7.45;5.13;;;17.10;99.90;;;;;;5072064;28;20059;-64
2023/05/14 07:12:16;;;;;;;8.90;4.90;;;17.30;99.90;;;;;;5052041;28;20036;-63
2023/05/14 07:14:43;;;;;;;7.70;4.95;;;17.50;99.90;;;;;;5070578;28;20105;-64
2023/05/14 07:17:11;;;;;;;13.90;5.65;;;17.80;99.90;;;;;;5053591;28;20056;-63
2023/05/14 07:19:38;;;;;;;15.27;5.82;;;18.00;99.90;;;;;;5070580;28;20496;-63
2023/05/14 07:22:05;;;;;;;13.30;5.38;;;18.20;99.90;;;;;;5052406;28;20095;-64
2023/05/14 07:24:33;;;;;;;12.13;5.25;;;18.40;99.90;;;;;;5070322;28;20052;-64
2023/05/14 07:27:00;;;;;;;9.98;5.07;;;18.70;99.90;;;;;;5053675;28;20048;-64
2023/05/14 07:29:28;;;;;;;12.80;5.63;;;18.90;99.90;;;;;;5052273;28;20407;-64
2023/05/14 07:31:55;;;;;;;9.90;4.68;;;19.30;99.90;;;;;;5071643;28;20047;-64
2023/05/14 07:34:22;;;;;;;14.25;4.97;;;19.30;99.90;;;;;;5068562;28;20052;-64
2023/05/14 07:36:49;;;;;;;8.15;5.03;;;19.60;99.90;;;;;;5071231;28;20050;-64
2023/05/14 07:39:16;;;;;;;11.30;4.80;;;19.90;99.90;;;;;;5067939;28;20110;-64
2023/05/14 07:41:45;;;;;;;10.35;4.13;;;20.20;99.90;;;;;;5053646;28;20044;-64
2023/05/14 07:44:12;;;;;;;11.68;5.18;;;20.50;99.90;;;;;;5051282;28;20443;-65
2023/05/14 07:46:38;;;;;;;10.50;4.55;;;20.90;99.90;;;;;;5071838;28;20110;-65
2023/05/14 07:49:05;;;;;;;10.55;4.28;;;20.90;99.90;;;;;;5052330;28;20393;-66
2023/05/14 07:51:32;;;;;;;15.70;5.10;;;21.20;99.90;;;;;;5053024;28;20101;-64
2023/05/14 07:53:59;;;;;;;9.38;4.43;;;21.30;99.90;;;;;;5069516;28;20044;-67
2023/05/14 07:56:26;;;;;;;11.38;3.92;;;21.50;99.90;;;;;;5071620;28;20132;-64
2023/05/14 07:58:55;;;;;;;11.75;4.88;;;21.70;99.90;;;;;;5067961;28;20075;-65
2023/05/14 08:01:22;;;;;;;9.07;3.85;;;21.80;99.90;;;;;;5055872;28;20136;-64
2023/05/14 08:03:49;;;;;;;12.63;4.72;;;21.80;99.90;;;;;;5073495;28;20044;-65
2023/05/14 08:06:16;;;;;;;15.57;4.30;;;21.60;99.90;;;;;;5054797;28;20508;-65
2023/05/14 08:08:43;;;;;;;6.88;3.90;;;21.30;99.90;;;;;;5057107;28;20086;-65
2023/05/14 08:11:10;;;;;;;9.98;4.38;;;21.10;99.90;;;;;;5074217;28;20052;-65
2023/05/14 08:13:37;;;;;;;9.73;4.13;;;21.20;99.90;;;;;;5075212;28;20124;-64
2023/05/14 08:16:06;;;;;;;9.73;4.13;;;21.80;99.90;;;;;;5072627;28;20056;-64
2023/05/14 08:18:33;;;;;;;9.38;4.15;;;22.20;99.90;;;;;;5056503;28;20048;-65
2023/05/14 08:21:00;;;;;;;8.15;3.95;;;22.50;99.90;;;;;;5055955;28;20052;-65
2023/05/14 08:23:27;;;;;;;11.10;4.30;;;22.50;99.90;;;;;;5057077;28;20109;-65
2023/05/14 08:25:54;;;;;;;8.40;4.18;;;22.50;99.90;;;;;;5071088;28;20052;-65
2023/05/14 08:28:21;;;;;;;9.13;4.00;;;22.90;99.90;;;;;;5057334;28;20055;-63
2023/05/14 08:30:48;;;;;;;6.78;3.47;;;23.10;99.90;;;;;;5073741;28;20105;-64
2023/05/14 08:33:16;;;;;;;9.52;3.90;;;23.10;99.90;;;;;;5056130;28;20106;-64
2023/05/14 08:35:43;;;;;;;9.10;3.78;;;23.50;99.90;;;;;;5074005;28;20119;-64
2023/05/14 08:38:10;;;;;;;8.00;4.13;;;23.80;99.90;;;;;;5056840;28;20105;-65
2023/05/14 08:40:37;;;;;;;8.90;4.03;;;23.80;99.90;;;;;;5055328;28;20048;-65
2023/05/14 08:43:06;;;;;;;9.07;3.80;;;23.70;99.90;;;;;;5074506;28;20040;-65
2023/05/14 08:45:36;;;;;;;10.18;3.28;;;23.90;99.90;;;;;;5072550;28;20052;-65
2023/05/14 08:48:07;;;;;;;10.80;4.07;;;23.70;99.90;;;;;;5055850;28;20044;-65
2023/05/14 08:50:36;;;;;;;7.35;3.55;;;24.20;99.90;;;;;;5067037;28;20049;-65
2023/05/14 08:53:03;;;;;;;9.82;3.33;;;24.30;99.90;;;;;;5069538;28;20060;-65
2023/05/14 08:55:32;;;;;;;9.30;4.03;;;23.90;99.90;;;;;;5055350;28;20052;-65
2023/05/14 08:58:00;;;;;;;8.80;3.83;;;24.00;99.80;;;;;;5052869;28;20044;-64
2023/05/14 09:00:27;;;;;;;8.80;4.28;;;23.80;99.40;;;;;;5071944;28;20135;-65
2023/05/14 09:02:55;;;;;;;10.45;5.00;;;23.40;99.60;;;;;;5054941;28;20044;-64
2023/05/14 09:05:48;;;;;;;8.60;3.75;;;23.50;99.80;;;;;;5073419;28;20086;-77
2023/05/14 09:08:15;;;;;;;7.72;3.65;;;23.80;99.60;;;;;;5052458;28;20053;-79
2023/05/14 09:10:42;;;;;;;7.28;3.35;;;23.90;99.80;;;;;;5035829;28;20056;-77
2023/05/14 09:13:09;;;;;;;8.85;3.80;;;24.50;99.60;;;;;;5053386;28;20138;-78
2023/05/14 09:15:37;;;;;;;12.02;4.22;;;24.70;98.90;;;;;;5036185;28;20061;-79
2023/05/14 09:18:05;;;;;;;8.82;3.78;;;24.90;98.20;;;;;;5035913;28;20060;-78
2023/05/14 09:20:33;;;;;;;8.10;3.72;;;24.60;98.00;;;;;;5036155;28;20091;-79
2023/05/14 09:23:01;;;;;;;8.95;4.30;;;24.60;98.20;;;;;;5053127;28;20053;-78
2023/05/14 09:25:31;;;;;;;15.93;5.40;;;24.90;97.70;;;;;;5035238;28;20057;-77
2023/05/14 09:27:59;;;;;;;8.23;4.13;;;24.70;97.30;;;;;;5048258;28;20189;-78
2023/05/14 09:30:26;;;;;;;9.60;4.07;;;24.70;97.70;;;;;;5034542;28;20123;-79
2023/05/14 09:32:54;;;;;;;8.30;3.92;;;24.70;97.80;;;;;;5053537;28;20084;-79
2023/05/14 09:35:22;;;;;;;8.90;4.28;;;25.00;97.60;;;;;;5051194;28;20048;-79
2023/05/14 09:37:50;;;;;;;9.23;4.00;;;24.90;97.10;;;;;;5033928;28;20052;-81
2023/05/14 09:40:20;;;;;;;7.97;4.22;;;25.00;97.20;;;;;;5052536;28;20053;-79
2023/05/14 09:42:48;;;;;;;10.07;4.72;;;25.40;97.00;;;;;;5035154;28;20052;-78
2023/05/14 09:48:56;;;;;;;10.63;4.15;;;26.10;95.90;;;;;;5052328;28;20392;-79
2023/05/14 09:51:24;;;;;;;9.98;3.88;;;26.20;95.90;;;;;;5052567;28;20440;-79
2023/05/14 09:53:53;;;;;;;7.97;3.45;;;26.50;95.60;;;;;;5035242;28;20081;-78
2023/05/14 09:56:21;;;;;;;7.43;4.28;;;26.20;94.90;;;;;;5052620;28;20484;-78
2023/05/14 09:58:48;;;;;;;8.85;4.60;;;26.40;95.30;;;;;;5033005;28;20055;-76
2023/05/14 10:01:18;;;;;;;6.65;3.88;;;26.40;94.50;;;;;;5034979;28;20053;-77
2023/05/14 10:03:46;;;;;;;16.88;4.80;;;26.40;94.80;;;;;;5034418;28;20049;-77
2023/05/14 10:06:14;;;;;;;7.75;4.38;;;26.50;95.00;;;;;;5057501;28;20052;-78
2023/05/14 10:08:44;;;;;;;7.77;4.00;;;26.50;94.30;;;;;;5054077;28;20383;-81
2023/05/14 10:11:14;;;;;;;9.93;4.80;;;26.30;92.90;;;;;;5053332;28;20570;-81
2023/05/14 10:13:46;;;;;;;;;;;26.10;93.60;;;;;;5072488;28;21380;-82
2023/05/14 10:16:19;;;;;;;9.10;3.78;;;26.00;92.70;;;;;;5057321;28;19963;-79
2023/05/14 10:18:51;;;;;;;8.93;4.10;;;26.00;94.30;;;;;;5069588;28;20424;-81
2023/05/14 10:21:21;;;;;;;7.07;4.13;;;26.10;94.30;;;;;;5053332;28;20048;-78
2023/05/14 10:23:49;;;;;;;10.45;3.88;;;26.10;94.40;;;;;;5052999;28;20059;-76
2023/05/14 10:26:16;;;;;;;10.48;4.43;;;26.10;94.60;;;;;;5051976;28;20065;-78
2023/05/14 10:28:45;;;;;;;10.73;4.90;;;25.80;94.80;;;;;;5052916;28;20384;-78
2023/05/14 10:31:13;;;;;;;7.47;4.10;;;25.60;94.20;;;;;;5071287;28;20452;-79
2023/05/14 10:33:49;;;;;;;11.27;4.15;;;25.50;94.90;;;;;;5053491;28;20056;-77
2023/05/14 10:36:17;;;;;;;8.48;4.13;;;25.60;95.10;;;;;;5070532;28;20131;-77
2023/05/14 10:38:44;;;;;;;6.35;3.85;;;25.80;94.50;;;;;;5050986;28;20114;-78
2023/05/14 10:41:13;;;;;;;9.55;4.30;;;26.30;94.50;;;;;;5070830;28;20049;-77
2023/05/14 10:43:41;;;;;;;10.13;5.13;;;26.50;94.20;;;;;;5054386;28;20412;-78
2023/05/14 10:46:12;;;;;;;8.68;4.72;;;26.60;93.90;;;;;;5052924;28;20056;-78
2023/05/14 10:48:42;;;;;;;11.68;4.65;;;27.10;94.00;;;;;;5054397;28;20052;-78
2023/05/14 10:51:11;;;;;;;8.60;4.45;;;27.10;93.00;;;;;;5053638;28;20443;-78
2023/05/14 10:53:39;;;;;;;8.75;4.50;;;27.10;92.40;;;;;;5070429;28;20052;-78
2023/05/14 10:56:07;;;;;;;7.18;4.25;;;27.40;92.90;;;;;;5070923;28;20049;-78
2023/05/14 10:58:38;;;;;;;8.70;3.88;;;27.60;91.60;;;;;;5050708;28;20130;-77
2023/05/14 11:01:07;;;;;;;9.63;4.30;;;27.60;91.80;;;;;;5070946;28;20454;-78
2023/05/14 11:03:41;;;;;;;8.48;4.70;;;27.50;92.20;;;;;;5070292;28;20045;-78
2023/05/14 11:06:10;;;;;;;9.93;4.72;;;27.30;91.00;;;;;;5050497;28;20103;-80
2023/05/14 11:08:37;;;;;;;8.60;4.43;;;27.70;91.50;;;;;;5061051;28;20534;-76
2023/05/14 11:11:05;;;;;;;8.73;3.95;;;27.80;90.20;;;;;;5047079;28;20136;-78
2023/05/14 11:13:33;;;;;;;9.75;3.97;;;28.00;90.50;;;;;;5044854;28;20117;-78
2023/05/14 11:16:02;;;;;;;6.47;3.80;;;28.20;90.10;;;;;;5050484;28;21266;-77
2023/05/14 11:18:30;;;;;;;9.48;6.82;;;28.60;90.20;;;;;;5047719;28;20488;-78
2023/05/14 11:21:00;;;;;;;9.23;4.00;;;28.90;88.70;;;;;;5049555;28;20057;-78
2023/05/14 11:23:28;;;;;;;5.82;3.50;;;29.30;87.60;;;;;;5046838;28;20056;-78
2023/05/14 11:25:56;;;;;;;7.82;4.50;;;29.00;84.40;;;;;;5051298;28;20068;-78
2023/05/14 11:28:24;;;;;;;10.25;7.18;;;28.90;85.40;;;;;;5048586;28;20052;-77
2023/05/14 11:30:52;;;;;;;6.70;4.28;;;28.40;86.00;;;;;;5051034;28;20095;-77
2023/05/14 11:33:20;;;;;;;8.25;4.25;;;28.10;85.10;;;;;;5049687;28;20041;-78
2023/05/14 11:35:47;;;;;;;5.93;3.80;;;27.80;85.80;;;;;;5048945;28;20058;-78
2023/05/14 11:38:16;;;;;;;9.32;3.88;;;27.60;86.60;;;;;;5048280;28;20052;-75
2023/05/14 11:40:44;;;;;;;6.38;3.83;;;27.50;85.30;;;;;;5048218;28;20053;-77
2023/05/14 11:43:11;;;;;;;4.45;3.60;;;27.70;84.20;;;;;;5048498;28;20091;-76
2023/05/14 11:45:38;;;;;;;7.40;3.83;;;27.90;83.80;;;;;;5048197;28;20102;-77
2023/05/14 11:48:14;;;;;;;7.13;4.40;;;28.40;86.50;;;;;;5046869;28;20053;-77
2023/05/14 11:50:45;;;;;;;5.95;3.80;;;28.90;84.90;;;;;;5046165;28;20079;-78
2023/05/14 11:53:15;;;;;;;6.70;3.78;;;29.10;83.80;;;;;;5049922;28;20072;-77
2023/05/14 11:55:44;;;;;;;13.20;4.70;;;28.90;81.80;;;;;;5048185;28;20110;-78
2023/05/14 11:58:12;;;;;;;11.77;8.55;;;28.80;80.50;;;;;;5048340;28;20056;-77
2023/05/14 12:00:39;;;;;;;6.43;3.78;;;28.60;79.10;;;;;;5048518;28;20061;-79
2023/05/14 12:03:08;;;;;;;6.65;3.17;;;28.40;80.70;;;;;;5046535;28;20060;-78
2023/05/14 12:05:37;;;;;;;7.13;3.43;;;29.10;80.90;;;;;;5044037;28;20452;-77
2023/05/14 12:08:19;;;;;;;8.00;3.47;;;29.10;78.80;;;;;;5051863;28;20060;-78
2023/05/14 12:10:48;;;;;;;5.43;3.45;;;28.90;78.50;;;;;;5068633;28;20048;-80
2023/05/14 12:13:16;;;;;;;6.22;3.95;;;28.90;78.40;;;;;;5052680;28;20503;-77
2023/05/14 12:15:45;;;;;;;7.72;4.07;;;29.00;79.70;;;;;;5052243;28;20071;-77
2023/05/14 12:18:12;;;;;;;5.22;3.42;;;29.00;79.50;;;;;;5050234;28;20048;-76
2023/05/14 12:20:40;;;;;;;7.50;3.25;;;29.10;79.40;;;;;;5052959;28;20056;-76
2023/05/14 12:23:10;;;;;;;9.10;4.35;;;29.30;79.50;;;;;;5068426;28;20431;-78
2023/05/14 12:25:38;;;;;;;8.60;3.90;;;29.30;80.20;;;;;;5068101;28;20511;-79
2023/05/14 12:28:15;;;;;;;6.20;4.00;;;29.30;79.40;;;;;;5051767;28;20124;-80
2023/05/14 12:30:42;;;;;;;5.22;3.75;;;29.10;78.90;;;;;;5052736;28;20052;-77
2023/05/14 12:33:09;;;;;;;5.30;4.00;;;29.20;79.00;;;;;;5050536;28;20090;-77
2023/05/14 12:35:36;;;;;;;6.18;4.00;;;29.00;78.30;;;;;;5068270;28;20055;-76
2023/05/14 12:38:04;;;;;;;7.05;3.70;;;28.80;78.10;;;;;;5069315;28;20048;-77
2023/05/14 12:40:30;;;;;;;5.68;3.67;;;28.40;77.20;;;;;;5070693;28;20063;-77
2023/05/14 12:42:57;;;;;;;9.77;3.47;;;28.50;77.30;;;;;;5051255;28;20059;-77
2023/05/14 12:45:26;;;;;;;4.50;3.50;;;28.50;78.00;;;;;;5052421;28;20052;-77
2023/05/14 12:47:52;;;;;;;8.95;4.20;;;28.50;78.30;;;;;;5073720;28;20094;-77